Time;durP1;ratioP1;P1;durP2;ratioP2;P2;SDS_P1;SDS_P2;PMS_P1;PMS_P2;Temp;Humidity;BMP_temperature;BMP_pressure;BME280_temperature;BME280_humidity;BME280_pressure;Samples;Min_cycle;Max_cycle;Signal;HPM_P1;HPM_P2
2023/05/23 00:01:15;;;;;;;12.20;6.82;;;18.80;90.00;;;;;;6155058;23;20088;-76
2023/05/23 00:03:42;;;;;;;9.88;7.53;;;18.80;90.10;;;;;;6183131;23;20025;-75
2023/05/23 00:06:07;;;;;;;13.38;7.30;;;18.80;90.10;;;;;;6187795;23;20013;-75
2023/05/23 00:08:33;;;;;;;12.82;7.35;;;18.70;90.30;;;;;;6213986;23;20324;-75
2023/05/23 00:10:59;;;;;;;15.13;6.90;;;18.80;90.30;;;;;;6214608;23;20007;-75
2023/05/23 00:13:25;;;;;;;10.98;7.15;;;18.80;90.30;;;;;;6214992;23;20041;-75
2023/05/23 00:15:51;;;;;;;17.80;8.00;;;18.80;90.30;;;;;;6187325;23;20025;-76
2023/05/23 00:18:17;;;;;;;12.13;7.40;;;18.80;90.30;;;;;;6214045;23;20007;-75
2023/05/23 00:20:44;;;;;;;13.93;7.32;;;18.80;90.30;;;;;;6213868;23;20090;-76
2023/05/23 00:23:17;;;;;;;10.98;7.35;;;18.70;90.20;;;;;;6214493;23;20084;-76
2023/05/23 00:25:47;;;;;;;12.00;7.47;;;18.70;90.30;;;;;;6214770;23;20009;-75
2023/05/23 00:28:13;;;;;;;12.45;7.07;;;18.70;90.30;;;;;;6214577;23;20001;-74
2023/05/23 00:30:39;;;;;;;11.48;7.18;;;18.70;90.40;;;;;;6218262;23;20000;-75
2023/05/23 00:33:05;;;;;;;13.25;7.00;;;18.70;90.50;;;;;;6229397;23;20027;-76
2023/05/23 00:35:31;;;;;;;11.15;7.28;;;18.70;90.40;;;;;;6214733;23;20021;-74
2023/05/23 00:37:56;;;;;;;10.40;7.07;;;18.70;90.60;;;;;;6214188;23;20021;-75
2023/05/23 00:40:22;;;;;;;11.50;7.18;;;18.70;90.50;;;;;;6214327;23;20065;-75
2023/05/23 00:42:48;;;;;;;10.65;7.32;;;18.70;90.50;;;;;;6214223;23;20319;-75
2023/05/23 00:45:15;;;;;;;13.50;7.47;;;18.60;90.50;;;;;;6213930;23;20072;-75
2023/05/23 00:47:42;;;;;;;10.55;6.38;;;18.60;90.50;;;;;;6214703;23;20040;-75
2023/05/23 00:50:10;;;;;;;11.23;6.82;;;18.60;90.60;;;;;;6214282;23;20060;-74
2023/05/23 00:52:37;;;;;;;9.43;7.18;;;18.60;90.60;;;;;;6215768;23;20001;-75
2023/05/23 00:55:04;;;;;;;12.20;7.43;;;18.60;90.50;;;;;;6215688;23;20020;-75
2023/05/23 00:57:30;;;;;;;12.10;7.18;;;18.60;90.50;;;;;;6216297;23;19996;-77
2023/05/23 00:59:56;;;;;;;11.93;6.22;;;18.60;90.50;;;;;;6189410;23;20012;-76
2023/05/23 01:02:21;;;;;;;8.82;6.68;;;18.70;90.50;;;;;;6216177;23;19997;-74
2023/05/23 01:04:53;;;;;;;12.27;6.80;;;18.70;90.40;;;;;;6215537;23;20028;-73
2023/05/23 01:07:19;;;;;;;11.40;6.38;;;18.60;90.40;;;;;;6215672;23;20454;-74
2023/05/23 01:09:46;;;;;;;11.60;6.60;;;18.60;90.30;;;;;;6215206;23;20076;-75
2023/05/23 01:12:38;;;;;;;12.93;7.30;;;18.60;90.30;;;;;;6188430;23;20016;-74
2023/05/23 01:15:08;;;;;;;11.57;6.90;;;18.60;90.40;;;;;;6215872;23;20013;-75
2023/05/23 01:18:03;;;;;;;10.82;7.25;;;18.60;90.40;;;;;;6215856;23;20009;-75
2023/05/23 01:20:44;;;;;;;12.20;7.28;;;18.50;90.50;;;;;;6215232;23;20023;-76
2023/05/23 01:23:31;;;;;;;13.68;6.78;;;18.40;90.20;;;;;;6215611;23;20001;-75
2023/05/23 01:26:09;;;;;;;13.50;7.40;;;18.40;90.50;;;;;;6188421;23;20035;-74
2023/05/23 01:28:40;;;;;;;12.45;7.57;;;18.30;90.50;;;;;;6215319;23;20012;-75
2023/05/23 01:31:09;;;;;;;14.20;6.93;;;18.30;90.40;;;;;;6188395;23;20005;-74
2023/05/23 01:33:36;;;;;;;10.63;6.80;;;18.30;90.50;;;;;;6215250;23;20004;-76
2023/05/23 01:36:02;;;;;;;12.23;6.47;;;18.30;90.30;;;;;;6188633;23;20458;-73
2023/05/23 01:38:28;;;;;;;12.23;6.40;;;18.40;90.40;;;;;;6215135;23;19997;-74
2023/05/23 01:40:54;;;;;;;9.35;6.47;;;18.40;90.30;;;;;;6214958;23;20005;-75
2023/05/23 01:43:21;;;;;;;11.02;7.15;;;18.40;90.50;;;;;;6215223;23;20012;-74
2023/05/23 01:45:48;;;;;;;11.45;6.70;;;18.30;90.40;;;;;;6215317;23;20043;-74
2023/05/23 01:48:15;;;;;;;9.98;7.10;;;18.30;90.50;;;;;;6214946;23;20291;-74
2023/05/23 01:50:45;;;;;;;15.40;7.78;;;18.30;90.50;;;;;;6215163;23;20005;-75
2023/05/23 01:53:14;;;;;;;12.68;7.43;;;18.30;90.50;;;;;;6215166;23;19997;-75
2023/05/23 01:55:41;;;;;;;11.75;6.68;;;18.30;90.70;;;;;;6213557;23;20012;-74
2023/05/23 01:58:07;;;;;;;11.05;7.72;;;18.20;90.70;;;;;;6214440;23;20001;-75
2023/05/23 02:00:33;;;;;;;11.75;7.22;;;18.20;90.70;;;;;;6215189;23;20096;-74
2023/05/23 02:02:59;;;;;;;12.95;7.20;;;18.20;90.70;;;;;;6215363;23;20017;-77
2023/05/23 02:05:26;;;;;;;9.80;7.03;;;18.10;90.80;;;;;;6216876;23;20059;-75
2023/05/23 02:07:51;;;;;;;12.73;7.13;;;18.10;90.90;;;;;;6216383;23;20005;-75
2023/05/23 02:10:18;;;;;;;12.48;6.88;;;18.10;90.90;;;;;;6215260;23;20426;-75
2023/05/23 02:12:44;;;;;;;12.50;7.20;;;18.10;90.90;;;;;;6214865;23;20005;-74
2023/05/23 02:15:09;;;;;;;15.00;7.22;;;18.00;91.00;;;;;;6214626;23;20020;-74
2023/05/23 02:17:35;;;;;;;12.55;8.00;;;18.00;91.10;;;;;;6187764;23;20075;-74
2023/05/23 02:20:01;;;;;;;12.68;8.90;;;18.00;91.10;;;;;;6214749;23;20001;-74
2023/05/23 02:22:27;;;;;;;15.18;8.48;;;18.00;91.10;;;;;;6188012;23;20012;-74
2023/05/23 02:24:52;;;;;;;12.23;7.93;;;18.00;91.30;;;;;;6214841;23;20027;-74
2023/05/23 02:27:18;;;;;;;12.95;7.55;;;18.00;91.20;;;;;;6214641;23;20019;-74
2023/05/23 02:29:44;;;;;;;13.40;8.18;;;17.90;91.20;;;;;;6214563;23;20011;-74
2023/05/23 02:32:10;;;;;;;12.38;7.88;;;17.90;91.50;;;;;;6215684;23;20045;-74
2023/05/23 02:34:37;;;;;;;11.45;7.18;;;17.90;91.30;;;;;;6214973;23;20356;-75
2023/05/23 02:37:02;;;;;;;11.90;7.60;;;17.90;91.40;;;;;;6215070;23;20111;-74
2023/05/23 02:39:28;;;;;;;11.93;8.00;;;17.90;91.30;;;;;;6214843;23;20004;-75
2023/05/23 02:41:54;;;;;;;11.95;8.98;;;17.90;91.50;;;;;;6187856;23;20134;-74
2023/05/23 02:44:19;;;;;;;10.55;8.02;;;17.90;91.40;;;;;;6214566;23;20005;-77
2023/05/23 02:46:45;;;;;;;12.85;9.07;;;17.90;91.50;;;;;;6187870;23;20402;-75
2023/05/23 02:49:11;;;;;;;15.85;9.07;;;17.80;91.50;;;;;;6214529;23;20012;-75
2023/05/23 02:51:37;;;;;;;14.32;8.75;;;17.80;91.60;;;;;;6214664;23;20276;-74
2023/05/23 02:54:02;;;;;;;12.77;8.82;;;17.80;91.50;;;;;;6214451;23;20015;-74
2023/05/23 02:56:28;;;;;;;13.63;8.57;;;17.80;91.60;;;;;;6214477;23;20500;-75
2023/05/23 02:58:54;;;;;;;14.48;8.80;;;17.70;91.50;;;;;;6214674;23;20059;-76
2023/05/23 03:01:20;;;;;;;13.60;8.98;;;17.70;91.80;;;;;;6188375;23;20092;-76
2023/05/23 03:03:45;;;;;;;15.80;8.32;;;17.70;91.80;;;;;;6214145;23;20083;-76
2023/05/23 03:06:13;;;;;;;12.88;8.77;;;17.70;91.80;;;;;;6214287;23;20411;-74
2023/05/23 03:08:42;;;;;;;14.00;7.93;;;17.70;91.80;;;;;;6214179;23;20011;-74
2023/05/23 03:11:08;;;;;;;15.23;7.85;;;17.70;91.80;;;;;;6214427;23;20024;-75
2023/05/23 03:13:36;;;;;;;17.13;9.50;;;17.70;91.80;;;;;;6214535;23;20001;-74
2023/05/23 03:16:02;;;;;;;13.27;8.98;;;17.70;91.80;;;;;;6214553;23;20004;-75
2023/05/23 03:18:28;;;;;;;14.95;9.18;;;17.70;91.90;;;;;;6215122;23;20003;-76
2023/05/23 03:20:53;;;;;;;12.77;10.20;;;17.70;92.00;;;;;;6214119;23;20312;-76
2023/05/23 03:23:19;;;;;;;13.23;9.45;;;17.70;91.90;;;;;;6214626;23;20075;-74
2023/05/23 03:25:45;;;;;;;13.63;9.32;;;17.70;92.00;;;;;;6188128;23;20008;-75
2023/05/23 03:28:13;;;;;;;12.00;9.13;;;17.60;92.00;;;;;;6214350;23;20225;-75
2023/05/23 03:30:39;;;;;;;16.25;8.88;;;17.60;92.30;;;;;;6214331;23;20001;-74
2023/05/23 03:33:05;;;;;;;13.57;8.35;;;17.50;92.10;;;;;;6214119;23;20079;-75
2023/05/23 03:35:31;;;;;;;12.60;8.43;;;17.50;92.20;;;;;;6214109;23;20107;-74
2023/05/23 03:37:57;;;;;;;14.85;9.55;;;17.50;92.20;;;;;;6214791;23;20438;-75
2023/05/23 03:40:22;;;;;;;14.23;8.85;;;17.60;92.30;;;;;;6214124;23;20379;-76
2023/05/23 03:43:04;;;;;;;13.20;8.38;;;17.60;92.20;;;;;;6188097;23;20009;-74
2023/05/23 03:45:31;;;;;;;11.57;8.20;;;17.60;92.30;;;;;;6215296;23;20000;-75
2023/05/23 03:47:58;;;;;;;14.05;9.55;;;17.50;92.20;;;;;;6213921;23;20024;-75
2023/05/23 03:50:23;;;;;;;14.88;8.90;;;17.50;92.30;;;;;;6213924;23;20000;-76
2023/05/23 03:52:49;;;;;;;13.13;8.93;;;17.60;92.40;;;;;;6214233;23;20008;-76
2023/05/23 03:55:15;;;;;;;13.63;9.23;;;17.60;92.30;;;;;;6213988;23;20040;-75
2023/05/23 03:57:40;;;;;;;13.80;8.60;;;17.60;92.30;;;;;;6213953;23;20011;-74
2023/05/23 04:00:08;;;;;;;17.20;8.38;;;17.60;92.20;;;;;;6214128;23;20352;-75
2023/05/23 04:02:34;;;;;;;12.27;8.18;;;17.60;92.30;;;;;;6213575;23;20007;-73
2023/05/23 04:05:00;;;;;;;10.13;8.13;;;17.60;92.10;;;;;;6213990;23;20016;-73
2023/05/23 04:07:26;;;;;;;12.85;8.63;;;17.60;92.00;;;;;;6213989;23;20007;-75
2023/05/23 04:09:51;;;;;;;15.77;8.90;;;17.50;92.10;;;;;;6188222;23;20342;-74
2023/05/23 04:12:18;;;;;;;13.10;8.35;;;17.50;92.20;;;;;;6214239;23;20012;-74
2023/05/23 04:14:43;;;;;;;12.63;8.75;;;17.50;92.20;;;;;;6214799;23;20110;-75
2023/05/23 04:17:10;;;;;;;11.52;8.10;;;17.60;92.20;;;;;;6214083;23;19996;-75
2023/05/23 04:19:36;;;;;;;11.27;8.10;;;17.60;92.10;;;;;;6214044;23;20005;-74
2023/05/23 04:22:02;;;;;;;14.02;7.88;;;17.60;92.00;;;;;;6213823;23;20078;-76
2023/05/23 04:24:27;;;;;;;13.70;8.00;;;17.60;92.00;;;;;;6213557;23;20005;-75
2023/05/23 04:26:55;;;;;;;16.13;8.02;;;17.60;91.80;;;;;;6213539;23;20011;-75
2023/05/23 04:29:20;;;;;;;14.32;8.52;;;17.70;91.80;;;;;;6187143;23;20013;-75
2023/05/23 04:31:46;;;;;;;14.80;8.02;;;17.70;91.70;;;;;;6187013;23;20032;-76
2023/05/23 04:34:12;;;;;;;15.23;8.57;;;17.70;91.60;;;;;;6213750;23;20032;-75
2023/05/23 04:36:38;;;;;;;13.60;8.25;;;17.70;91.60;;;;;;6213560;23;20012;-75
2023/05/23 04:39:04;;;;;;;11.88;8.27;;;17.70;91.60;;;;;;6186754;23;20012;-76
2023/05/23 04:41:31;;;;;;;12.30;8.50;;;17.70;91.80;;;;;;6186684;23;20430;-75
2023/05/23 04:43:57;;;;;;;12.80;7.75;;;17.70;91.50;;;;;;6213190;23;20319;-75
2023/05/23 04:46:25;;;;;;;16.75;7.97;;;17.70;91.50;;;;;;6213825;23;20005;-76
2023/05/23 04:48:53;;;;;;;16.92;8.90;;;17.80;91.50;;;;;;6213435;23;20032;-75
2023/05/23 04:51:20;;;;;;;19.98;7.95;;;17.80;91.20;;;;;;6213656;23;20062;-75
2023/05/23 04:53:47;;;;;;;13.35;8.13;;;17.80;91.20;;;;;;6213751;23;20004;-74
2023/05/23 04:56:13;;;;;;;15.15;8.05;;;17.90;91.20;;;;;;6213878;23;20070;-74
2023/05/23 04:58:40;;;;;;;15.18;8.43;;;17.90;91.10;;;;;;6218335;23;20049;-75
2023/05/23 05:01:08;;;;;;;17.35;8.05;;;17.90;91.00;;;;;;6213593;23;20013;-76
2023/05/23 05:03:34;;;;;;;12.52;8.38;;;18.00;91.00;;;;;;6213489;23;20025;-76
2023/05/23 05:06:01;;;;;;;13.55;8.52;;;18.00;90.90;;;;;;6213886;23;20325;-76
2023/05/23 05:08:27;;;;;;;14.48;9.23;;;18.00;90.90;;;;;;6213425;23;20019;-74
2023/05/23 05:10:54;;;;;;;16.00;9.07;;;18.10;90.90;;;;;;6213262;23;20422;-75
2023/05/23 05:13:20;;;;;;;13.68;8.77;;;18.20;90.90;;;;;;6213205;23;20012;-77
2023/05/23 05:15:46;;;;;;;18.58;9.00;;;18.30;90.70;;;;;;6213000;23;20457;-74
2023/05/23 05:18:12;;;;;;;12.88;8.02;;;18.40;90.50;;;;;;6213615;23;20004;-76
2023/05/23 05:20:38;;;;;;;14.98;8.43;;;18.60;90.30;;;;;;6213132;23;20016;-75
2023/05/23 05:23:04;;;;;;;17.80;9.02;;;18.90;90.10;;;;;;6213705;23;20000;-76
2023/05/23 05:25:35;;;;;;;13.57;8.32;;;19.00;89.70;;;;;;6214022;23;20443;-76
2023/05/23 05:28:04;;;;;;;12.45;8.27;;;19.20;89.70;;;;;;6186773;23;20403;-76
2023/05/23 05:30:34;;;;;;;16.13;8.30;;;19.40;89.00;;;;;;6213875;23;20444;-76
2023/05/23 05:33:01;;;;;;;15.13;8.07;;;19.70;88.40;;;;;;6213709;23;20327;-77
2023/05/23 05:35:27;;;;;;;12.00;7.00;;;19.90;87.50;;;;;;6213417;23;20067;-75
2023/05/23 05:37:52;;;;;;;16.40;8.10;;;20.00;87.10;;;;;;6214620;23;20069;-76
2023/05/23 05:40:18;;;;;;;14.43;6.93;;;20.10;86.10;;;;;;6215398;23;20001;-75
2023/05/23 05:42:44;;;;;;;10.02;5.97;;;20.20;85.80;;;;;;6215264;23;20003;-75
2023/05/23 05:45:10;;;;;;;12.68;6.55;;;20.30;84.80;;;;;;6216969;23;20004;-78
2023/05/23 05:47:37;;;;;;;9.57;6.47;;;20.40;84.50;;;;;;6215791;23;20001;-80
2023/05/23 05:50:08;;;;;;;12.75;6.45;;;20.60;84.30;;;;;;6217179;23;20403;-79
2023/05/23 05:52:37;;;;;;;15.15;6.10;;;20.80;83.80;;;;;;6215522;23;20001;-83
2023/05/23 05:55:12;;;;;;;13.85;6.20;;;20.90;82.90;;;;;;6188031;23;20023;-79
2023/05/23 05:57:41;;;;;;;10.07;5.55;;;21.00;82.30;;;;;;6215081;23;20009;-76
2023/05/23 06:00:13;;;;;;;12.15;5.57;;;21.00;81.60;;;;;;6215645;23;20011;-79
2023/05/23 06:02:41;;;;;;;13.48;5.75;;;21.00;81.20;;;;;;6215619;23;20024;-80
2023/05/23 06:05:11;;;;;;;11.95;5.78;;;21.20;81.00;;;;;;6215813;23;20009;-80
2023/05/23 06:07:39;;;;;;;12.18;5.38;;;21.30;80.60;;;;;;6215429;23;20017;-78
2023/05/23 06:10:06;;;;;;;10.50;5.63;;;21.30;80.50;;;;;;6215768;23;20276;-79
2023/05/23 06:12:35;;;;;;;8.43;5.20;;;21.40;79.50;;;;;;6215117;23;20003;-79
2023/05/23 06:15:01;;;;;;;10.68;5.47;;;21.50;79.40;;;;;;6216120;23;20017;-79
2023/05/23 06:17:27;;;;;;;9.95;5.32;;;21.70;78.80;;;;;;6189851;23;20005;-79
2023/05/23 06:19:53;;;;;;;13.95;5.53;;;21.70;78.00;;;;;;6189360;23;20442;-80
2023/05/23 06:22:18;;;;;;;10.68;5.65;;;21.80;78.30;;;;;;6215246;23;20001;-81
2023/05/23 06:24:45;;;;;;;12.80;5.53;;;22.00;77.30;;;;;;6214577;23;20422;-79
2023/05/23 06:27:11;;;;;;;11.88;5.97;;;22.10;77.30;;;;;;6214957;23;20016;-79
2023/05/23 06:29:37;;;;;;;13.52;5.75;;;22.20;76.80;;;;;;6214754;23;20450;-79
2023/05/23 06:32:03;;;;;;;12.82;5.97;;;22.30;76.30;;;;;;6188068;23;20087;-80
2023/05/23 06:34:29;;;;;;;9.38;5.40;;;22.30;76.10;;;;;;6214208;23;20075;-78
2023/05/23 06:36:55;;;;;;;10.45;6.10;;;22.40;75.70;;;;;;6214594;23;20059;-81
2023/05/23 06:39:20;;;;;;;14.52;5.38;;;22.40;75.80;;;;;;6214968;23;20027;-82
2023/05/23 06:41:46;;;;;;;13.77;6.47;;;22.50;76.00;;;;;;6214424;23;20377;-80
2023/05/23 06:44:12;;;;;;;12.23;5.70;;;22.70;75.60;;;;;;6214960;23;20092;-80
2023/05/23 06:46:38;;;;;;;14.30;5.93;;;22.70;75.60;;;;;;6214504;23;19997;-80
2023/05/23 06:49:04;;;;;;;15.10;6.07;;;22.90;75.40;;;;;;6214379;23;20008;-80
2023/05/23 06:51:30;;;;;;;17.35;6.63;;;23.00;74.70;;;;;;6215868;23;20322;-80
2023/05/23 06:53:56;;;;;;;25.30;6.53;;;23.10;74.20;;;;;;6224488;23;20001;-79
2023/05/23 06:56:22;;;;;;;43.45;7.93;;;23.10;73.80;;;;;;6218142;23;20004;-80
2023/05/23 06:58:48;;;;;;;25.02;7.18;;;23.20;73.70;;;;;;6216883;23;20003;-81
2023/05/23 07:01:14;;;;;;;24.77;7.00;;;23.20;73.80;;;;;;6217421;23;20001;-79
2023/05/23 07:03:42;;;;;;;21.40;5.75;;;23.40;73.70;;;;;;6214563;23;20414;-79
2023/05/23 07:06:07;;;;;;;22.95;6.72;;;23.40;73.20;;;;;;6214679;23;20028;-81
2023/05/23 07:08:33;;;;;;;14.02;6.60;;;23.40;73.00;;;;;;6214641;23;20008;-79
2023/05/23 07:10:59;;;;;;;11.02;5.90;;;23.50;72.90;;;;;;6221481;23;20462;-80
2023/05/23 07:13:25;;;;;;;18.27;6.25;;;23.60;72.90;;;;;;6215385;23;20084;-79
2023/05/23 07:15:51;;;;;;;15.73;5.65;;;23.60;72.50;;;;;;6214986;23;20350;-80
2023/05/23 07:18:16;;;;;;;16.40;6.63;;;23.70;72.20;;;;;;6215421;23;20005;-80
2023/05/23 07:20:42;;;;;;;27.10;6.78;;;23.60;72.00;;;;;;6215027;23;20004;-80
2023/05/23 07:23:08;;;;;;;11.48;5.88;;;23.70;72.00;;;;;;6215028;23;20035;-79
2023/05/23 07:25:34;;;;;;;16.92;5.75;;;23.70;72.00;;;;;;6214579;23;20004;-80
2023/05/23 07:27:59;;;;;;;20.30;5.78;;;23.70;71.80;;;;;;6214682;23;20048;-80
2023/05/23 07:30:25;;;;;;;13.77;5.88;;;23.70;71.50;;;;;;6215003;23;20376;-79
2023/05/23 07:32:54;;;;;;;11.45;5.05;;;23.70;71.50;;;;;;6215188;23;20013;-80
2023/05/23 07:35:24;;;;;;;13.23;5.80;;;23.70;71.50;;;;;;6215532;23;20019;-82
2023/05/23 07:37:53;;;;;;;8.57;5.72;;;23.80;71.30;;;;;;6214593;23;20013;-80
2023/05/23 07:40:19;;;;;;;11.90;6.25;;;23.80;71.20;;;;;;6214717;23;20012;-79
2023/05/23 07:42:45;;;;;;;13.00;5.72;;;23.80;71.00;;;;;;6214464;23;20000;-82
2023/05/23 07:45:11;;;;;;;8.07;5.13;;;23.80;71.20;;;;;;6214793;23;20051;-80
2023/05/23 07:47:37;;;;;;;12.35;5.40;;;23.90;71.10;;;;;;6214853;23;20092;-82
2023/05/23 07:50:03;;;;;;;15.70;6.40;;;24.00;71.10;;;;;;6214416;23;20075;-80
2023/05/23 07:52:30;;;;;;;13.70;5.90;;;24.10;71.10;;;;;;6214364;23;20134;-80
2023/05/23 07:54:57;;;;;;;16.90;6.85;;;24.10;70.90;;;;;;6214692;23;20047;-79
2023/05/23 07:57:25;;;;;;;22.05;8.80;;;24.10;70.70;;;;;;6216355;23;20001;-81
2023/05/23 07:59:52;;;;;;;10.68;6.10;;;24.10;70.70;;;;;;6219133;23;20071;-79
2023/05/23 08:02:18;;;;;;;7.97;5.57;;;24.10;70.30;;;;;;6217377;23;20025;-79
2023/05/23 08:04:44;;;;;;;16.95;6.38;;;24.10;70.50;;;;;;6214516;23;20021;-80
2023/05/23 08:07:11;;;;;;;9.93;5.95;;;24.00;70.30;;;;;;6214678;23;20449;-78
2023/05/23 08:09:41;;;;;;;9.73;5.45;;;24.00;70.60;;;;;;6214740;23;20008;-79
2023/05/23 08:12:08;;;;;;;11.85;5.90;;;24.00;70.80;;;;;;6214718;23;20304;-80
2023/05/23 08:14:34;;;;;;;8.77;5.90;;;24.10;71.40;;;;;;6215862;23;20019;-80
2023/05/23 08:17:01;;;;;;;9.45;6.10;;;24.10;70.50;;;;;;6218851;23;20009;-81
2023/05/23 08:19:27;;;;;;;12.10;5.68;;;24.20;70.30;;;;;;6218029;23;20349;-79
2023/05/23 08:21:52;;;;;;;12.93;6.63;;;24.20;70.40;;;;;;6218824;23;19997;-81
2023/05/23 08:24:20;;;;;;;10.43;5.85;;;24.10;70.20;;;;;;6189150;23;20389;-80
2023/05/23 08:26:46;;;;;;;13.02;5.93;;;24.10;70.10;;;;;;6215993;23;20003;-81
2023/05/23 08:29:12;;;;;;;11.07;5.85;;;24.10;70.20;;;;;;6214660;23;20004;-79
2023/05/23 08:31:38;;;;;;;11.98;6.25;;;24.20;70.30;;;;;;6215047;23;20008;-80
2023/05/23 08:34:03;;;;;;;10.35;5.97;;;24.20;70.20;;;;;;6214818;23;20463;-80
2023/05/23 08:36:33;;;;;;;12.73;5.97;;;24.10;69.80;;;;;;6215029;23;20027;-80
2023/05/23 08:38:58;;;;;;;11.20;5.88;;;24.10;69.70;;;;;;6187294;23;20008;-80
2023/05/23 08:41:25;;;;;;;13.38;5.82;;;24.00;69.50;;;;;;6214463;23;20415;-79
2023/05/23 08:43:52;;;;;;;12.60;5.80;;;24.00;69.20;;;;;;6214642;23;20016;-80
2023/05/23 08:46:17;;;;;;;9.95;5.60;;;24.00;69.30;;;;;;6188974;23;20009;-80
2023/05/23 08:48:49;;;;;;;8.00;5.72;;;24.10;69.50;;;;;;6221038;23;20130;-80
2023/05/23 08:51:16;;;;;;;13.73;6.30;;;24.10;69.10;;;;;;6214191;23;20320;-80
2023/05/23 08:53:46;;;;;;;11.35;5.78;;;24.10;68.90;;;;;;6213855;23;20011;-79
2023/05/23 08:56:12;;;;;;;10.68;5.60;;;24.10;69.40;;;;;;6213899;23;20016;-80
2023/05/23 08:58:40;;;;;;;10.07;5.47;;;24.10;68.60;;;;;;6214214;23;20079;-80
2023/05/23 09:01:08;;;;;;;16.83;6.57;;;24.20;68.60;;;;;;6213982;23;20015;-81
2023/05/23 09:03:36;;;;;;;9.55;5.43;;;24.20;68.60;;;;;;6213819;23;20016;-81
2023/05/23 09:06:06;;;;;;;8.88;6.03;;;24.30;68.60;;;;;;6215409;23;20111;-80
2023/05/23 09:08:33;;;;;;;11.30;5.03;;;24.30;68.20;;;;;;6214089;23;20387;-80
2023/05/23 09:11:01;;;;;;;8.07;5.13;;;24.30;67.90;;;;;;6213745;23;20392;-81
2023/05/23 09:13:30;;;;;;;16.30;5.88;;;24.30;67.80;;;;;;6215653;23;20112;-78
2023/05/23 09:16:06;;;;;;;9.93;5.65;;;24.40;67.30;;;;;;6189091;23;20123;-78
2023/05/23 09:18:43;;;;;;;19.42;6.35;;;24.40;66.40;;;;;;6215838;23;20108;-81
2023/05/23 09:21:11;;;;;;;11.77;5.20;;;24.40;66.70;;;;;;6216474;23;20004;-80
2023/05/23 09:23:38;;;;;;;9.70;5.18;;;24.40;66.20;;;;;;6217188;23;20001;-79
2023/05/23 09:26:06;;;;;;;20.88;5.70;;;24.40;65.40;;;;;;6215318;23;20008;-81
2023/05/23 09:28:33;;;;;;;14.43;5.50;;;24.40;65.10;;;;;;6215322;23;20338;-80
2023/05/23 09:31:06;;;;;;;11.70;5.50;;;24.50;64.80;;;;;;6215865;23;20005;-81
2023/05/23 09:33:49;;;;;;;15.00;5.22;;;24.50;63.70;;;;;;6216837;23;20163;-80
2023/05/23 09:36:16;;;;;;;13.07;4.78;;;24.60;64.80;;;;;;6215375;23;20122;-80
2023/05/23 09:38:44;;;;;;;10.15;4.80;;;24.60;63.50;;;;;;6216133;23;20012;-79
2023/05/23 09:41:11;;;;;;;10.65;4.45;;;24.70;62.00;;;;;;6219348;23;20020;-80
2023/05/23 09:43:52;;;;;;;10.40;4.40;;;24.70;61.70;;;;;;6220581;23;20000;-80
2023/05/23 09:46:20;;;;;;;10.48;5.32;;;24.70;60.80;;;;;;6215417;23;20275;-80
2023/05/23 09:48:51;;;;;;;14.18;5.53;;;24.70;61.40;;;;;;6216623;23;20070;-79
2023/05/23 09:51:21;;;;;;;10.70;4.78;;;24.70;61.40;;;;;;6215902;23;20093;-80
2023/05/23 09:53:47;;;;;;;8.50;4.97;;;24.70;61.80;;;;;;6215794;23;20015;-81
2023/05/23 09:56:15;;;;;;;8.20;5.18;;;24.70;61.90;;;;;;6215616;23;20071;-80
2023/05/23 09:58:46;;;;;;;10.15;4.95;;;24.90;62.20;;;;;;6189672;23;20012;-78
2023/05/23 10:01:13;;;;;;;8.48;5.00;;;24.90;61.90;;;;;;6216693;23;20005;-80
2023/05/23 10:03:44;;;;;;;8.70;5.15;;;25.00;62.10;;;;;;6216516;23;20021;-81
2023/05/23 10:06:31;;;;;;;8.10;4.43;;;25.00;61.70;;;;;;6216779;23;20063;-81
2023/05/23 10:09:03;;;;;;;8.68;4.85;;;25.00;61.50;;;;;;6216071;23;20036;-79
2023/05/23 10:11:35;;;;;;;11.60;4.68;;;25.10;61.70;;;;;;6188887;23;20063;-79
2023/05/23 10:14:06;;;;;;;13.48;5.00;;;25.20;62.00;;;;;;6215077;23;20008;-80
2023/05/23 10:17:02;;;;;;;7.45;4.63;;;25.30;61.10;;;;;;6215224;23;20009;-81
2023/05/23 10:19:50;;;;;;;12.07;5.22;;;25.30;60.40;;;;;;6218013;23;20015;-82
2023/05/23 10:22:17;;;;;;;7.88;4.75;;;25.40;60.40;;;;;;6194252;23;20090;-80
2023/05/23 10:24:47;;;;;;;10.93;5.13;;;25.50;60.30;;;;;;6216261;23;20008;-81
2023/05/23 10:27:14;;;;;;;9.88;4.85;;;25.50;60.20;;;;;;6216133;23;20012;-80
2023/05/23 10:29:40;;;;;;;7.55;5.07;;;25.70;60.20;;;;;;6188527;23;20089;-80
2023/05/23 10:32:06;;;;;;;10.13;5.25;;;25.70;60.00;;;;;;6216476;23;20055;-81
2023/05/23 10:34:55;;;;;;;10.48;5.63;;;25.80;59.90;;;;;;6217034;23;20028;-79
2023/05/23 10:37:44;;;;;;;11.90;5.30;;;25.90;59.70;;;;;;6215905;23;20015;-81
2023/05/23 10:40:38;;;;;;;8.93;4.68;;;26.00;59.50;;;;;;6219423;23;20005;-80
2023/05/23 10:43:24;;;;;;;11.65;4.70;;;26.00;59.10;;;;;;6221152;23;20430;-80
2023/05/23 10:45:50;;;;;;;7.70;4.57;;;26.00;58.80;;;;;;6187833;23;20087;-81
2023/05/23 10:48:43;;;;;;;9.48;4.55;;;26.10;57.90;;;;;;6215300;23;20007;-81
2023/05/23 10:51:10;;;;;;;7.38;3.88;;;26.00;57.30;;;;;;6215302;23;20028;-80
2023/05/23 10:53:54;;;;;;;10.57;4.55;;;26.10;58.00;;;;;;6187749;23;20011;-81
2023/05/23 10:56:22;;;;;;;11.52;4.75;;;26.10;57.90;;;;;;6214942;23;20088;-81
2023/05/23 10:58:55;;;;;;;10.43;4.80;;;26.10;57.80;;;;;;6214538;23;20001;-82
2023/05/23 11:01:22;;;;;;;8.10;4.00;;;26.10;57.40;;;;;;6214431;23;20011;-80
2023/05/23 11:03:50;;;;;;;10.57;4.88;;;26.20;57.50;;;;;;6214921;23;20462;-81
2023/05/23 11:06:43;;;;;;;12.32;4.93;;;26.30;57.40;;;;;;6215508;23;20043;-81
2023/05/23 11:09:20;;;;;;;7.75;4.70;;;26.30;56.80;;;;;;6215810;23;20351;-81
2023/05/23 11:12:04;;;;;;;8.13;4.70;;;26.40;56.30;;;;;;6189332;23;20011;-80
2023/05/23 11:14:50;;;;;;;11.85;5.10;;;26.40;56.80;;;;;;6216359;23;20461;-81
2023/05/23 11:17:16;;;;;;;11.82;5.28;;;26.60;56.90;;;;;;6219664;23;20115;-80
2023/05/23 11:19:57;;;;;;;11.52;4.85;;;26.60;56.90;;;;;;6219868;23;20000;-80
2023/05/23 11:22:28;;;;;;;10.70;4.72;;;26.70;56.60;;;;;;6219646;23;20001;-81
2023/05/23 11:24:55;;;;;;;14.85;5.00;;;26.80;56.30;;;;;;6217616;23;20096;-80
2023/05/23 11:27:36;;;;;;;11.20;5.43;;;26.90;56.10;;;;;;6215334;23;20001;-82
2023/05/23 11:30:17;;;;;;;15.93;5.72;;;27.00;56.10;;;;;;6215112;23;20096;-81
2023/05/23 11:32:51;;;;;;;10.00;5.95;;;27.10;56.00;;;;;;6214446;23;20012;-81
2023/05/23 11:35:17;;;;;;;8.57;5.18;;;27.10;56.20;;;;;;6187334;23;20091;-80
2023/05/23 11:37:43;;;;;;;10.00;5.15;;;27.20;56.10;;;;;;6215217;23;20027;-81
2023/05/23 11:40:28;;;;;;;10.05;6.00;;;27.30;56.20;;;;;;6215273;23;20082;-81
2023/05/23 11:42:55;;;;;;;8.02;4.72;;;27.40;56.10;;;;;;6215368;23;20004;-82
2023/05/23 11:45:25;;;;;;;10.20;5.43;;;27.50;56.60;;;;;;6216148;23;20024;-81
2023/05/23 11:47:51;;;;;;;9.43;5.28;;;27.60;57.00;;;;;;6215012;23;20016;-80
2023/05/23 11:50:19;;;;;;;8.93;5.60;;;27.70;57.50;;;;;;6214253;23;20123;-81
2023/05/23 11:52:50;;;;;;;9.35;6.03;;;27.90;57.80;;;;;;6214818;23;20442;-81
2023/05/23 11:55:19;;;;;;;11.25;6.13;;;28.00;58.10;;;;;;6216841;23;20044;-80
2023/05/23 11:57:46;;;;;;;11.32;5.68;;;28.10;57.70;;;;;;6215139;23;20012;-81
2023/05/23 12:00:12;;;;;;;11.05;5.72;;;28.20;58.20;;;;;;6215904;23;20528;-80
2023/05/23 12:02:43;;;;;;;10.85;5.63;;;28.30;58.00;;;;;;6215458;23;19996;-81
2023/05/23 12:05:12;;;;;;;8.70;6.00;;;28.30;57.80;;;;;;6214789;23;20009;-81
2023/05/23 12:07:46;;;;;;;10.85;5.28;;;28.30;57.80;;;;;;6214487;23;20087;-81
2023/05/23 12:10:13;;;;;;;11.00;5.72;;;28.30;58.30;;;;;;6213787;23;20148;-81
2023/05/23 12:12:41;;;;;;;10.00;6.07;;;28.40;58.50;;;;;;6214208;23;20012;-80
2023/05/23 12:15:08;;;;;;;9.65;6.00;;;28.40;58.70;;;;;;6214940;23;20020;-83
2023/05/23 12:17:36;;;;;;;10.10;6.43;;;28.50;58.20;;;;;;6215359;23;20000;-81
2023/05/23 12:20:04;;;;;;;9.27;5.88;;;28.50;57.90;;;;;;6214962;23;20419;-82
2023/05/23 12:22:29;;;;;;;9.98;5.43;;;28.50;57.90;;;;;;6215455;23;19997;-81
2023/05/23 12:24:55;;;;;;;10.27;5.85;;;28.50;58.10;;;;;;6214874;23;20000;-81
2023/05/23 12:27:34;;;;;;;12.00;5.70;;;28.40;58.30;;;;;;6163311;23;20072;-81
2023/05/23 12:30:08;;;;;;;10.63;6.10;;;28.40;58.30;;;;;;6214726;23;20076;-82
2023/05/23 12:32:34;;;;;;;9.82;5.43;;;28.30;58.60;;;;;;6214593;23;20061;-82
2023/05/23 12:35:00;;;;;;;12.15;5.50;;;28.30;58.60;;;;;;6220366;23;20000;-81
2023/05/23 12:37:26;;;;;;;10.35;5.68;;;28.20;58.80;;;;;;6221495;23;20083;-80
2023/05/23 12:39:51;;;;;;;13.23;6.05;;;28.20;58.90;;;;;;6214210;23;20055;-80
2023/05/23 12:42:17;;;;;;;9.52;5.70;;;28.10;59.00;;;;;;6214599;23;20320;-80
2023/05/23 12:44:44;;;;;;;7.70;5.40;;;28.10;58.90;;;;;;6216990;23;20063;-81